»·PEaware :: N959NA KSAN-KMRY

N959NA :: KSAN-KMRY

FLIGHT INFORMATION

Flight Status: Arrived
Operator: Privately registered:
United States
More flights under this callsign
Pilot: Jim P. (2486)
Aircraft: NORTHROP T-38 AT-38 TALON
(T38)
More flights by this aircraft type
Origin: KSAN San Diego Intl-Lindbergh
United States
Destination: KMRY Monterey Peninsula
United States
More flights between these airports :: More routes between these airports
Route: +PEBLE6 SXC RZS J501 BSR PEBB1
File this flight plan on PilotEdge
Remarks:
Altitude:
(Current/Filed)
32,000ft
Speed:
(Current/Filed)
550kts
Departed: 05-May-18 12:52 PM
Arrived: 05-May-18 01:43 PM
Distance/Time
Traveled:
326nm/0:51
Distance/Time
To Go:
Arrived

Flight Plot

Page will automatically refresh every two minutes.

Flight plan parsing failed; only flown route is shown


Map Options




Map Legend


Flown Route
Filed Route
Departure Airport
Arrival Airport
Navaid (VOR, NDB)
Fix

Horizontal Profiles

Position Reports

Time Latitude Longitude Heading Altitude Ground
Speed
05-May-18 12:23 32.732291 -117.176767 13 18ft 0kts
05-May-18 12:24 32.732291 -117.176767 13 18ft 0kts
05-May-18 12:25 32.732291 -117.176767 13 18ft 0kts
05-May-18 12:26 32.732291 -117.176767 13 18ft 0kts
05-May-18 12:27 32.732291 -117.176767 13 18ft 0kts
05-May-18 12:28 32.732291 -117.176767 13 18ft 0kts
05-May-18 12:29 32.732291 -117.176767 13 18ft 0kts
05-May-18 12:30 32.732291 -117.176767 13 18ft 0kts
05-May-18 12:31 32.732291 -117.176767 13 18ft 0kts
05-May-18 12:32 32.732291 -117.176767 13 18ft 0kts
05-May-18 12:33 32.732291 -117.176767 13 18ft 0kts
05-May-18 12:34 32.732291 -117.176767 13 18ft 0kts
05-May-18 12:35 32.732291 -117.176767 13 18ft 0kts
05-May-18 12:36 32.732291 -117.176767 13 18ft 0kts
05-May-18 12:37 32.732291 -117.176767 13 18ft 0kts
05-May-18 12:38 32.732291 -117.176767 13 18ft 0kts
05-May-18 12:39 32.732291 -117.176767 13 18ft 0kts
05-May-18 12:40 32.732291 -117.176767 13 18ft 0kts
05-May-18 12:41 32.732291 -117.176767 13 18ft 0kts
05-May-18 12:42 32.732293 -117.176766 13 18ft 0kts
05-May-18 12:43 32.732294 -117.176766 13 18ft 0kts
05-May-18 12:44 32.732296 -117.176766 13 18ft 0kts
05-May-18 12:45 32.732298 -117.176765 13 18ft 0kts
05-May-18 12:46 32.732299 -117.176765 13 18ft 0kts
05-May-18 12:47 32.732301 -117.176764 13 18ft 0kts
05-May-18 12:48 32.732239 -117.176510 178 18ft 4kts
05-May-18 12:49 32.731403 -117.175840 119 18ft 6kts
05-May-18 12:50 32.730885 -117.175283 155 18ft 0kts
05-May-18 12:51 32.730791 -117.175275 190 18ft 3kts
05-May-18 12:52 32.731118 -117.179743 287 18ft 110kts
05-May-18 12:53 32.760583 -117.247226 302 2525ft 280kts
05-May-18 12:54 32.803664 -117.317878 313 3431ft 253kts
05-May-18 12:55 32.853026 -117.375023 328 5394ft 254kts
05-May-18 12:55 32.904130 -117.422320 309 8046ft 304kts
05-May-18 12:56 32.956964 -117.507058 305 12209ft 326kts
05-May-18 12:57 33.016081 -117.603659 304 14839ft 404kts
05-May-18 12:58 33.091796 -117.728678 305 15031ft 515kts
05-May-18 12:59 33.173232 -117.880893 290 16213ft 559kts
05-May-18 13:00 33.225798 -118.055113 285 19441ft 573kts
05-May-18 13:01 33.280983 -118.233930 291 23009ft 552kts
05-May-18 13:02 33.339627 -118.402502 295 26534ft 554kts
05-May-18 13:03 33.448428 -118.532934 319 28279ft 570kts
05-May-18 13:04 33.565037 -118.650816 316 28129ft 517kts
05-May-18 13:05 33.668964 -118.760566 317 27942ft 484kts
05-May-18 13:06 33.767511 -118.862219 317 28192ft 450kts
05-May-18 13:07 33.860547 -118.960844 314 27951ft 443kts
05-May-18 13:08 33.936006 -119.053706 312 28090ft 431kts
05-May-18 13:09 34.020868 -119.155790 312 27989ft 426kts
05-May-18 13:10 34.096654 -119.246253 312 27913ft 422kts
05-May-18 13:11 34.177048 -119.346815 310 28006ft 416kts
05-May-18 13:12 34.257510 -119.449784 310 28157ft 424kts
05-May-18 13:13 34.330921 -119.544729 310 28139ft 435kts
05-May-18 13:14 34.417537 -119.651002 311 28173ft 443kts
05-May-18 13:15 34.501703 -119.762989 309 27980ft 453kts
05-May-18 13:16 34.584889 -119.859186 315 28065ft 456kts
05-May-18 13:17 34.680611 -119.961836 315 28001ft 463kts
05-May-18 13:18 34.757652 -120.045084 315 28249ft 461kts
05-May-18 13:19 34.854173 -120.149676 315 28202ft 466kts
05-May-18 13:20 34.943132 -120.244103 315 28033ft 471kts
05-May-18 13:21 35.040548 -120.350831 314 27884ft 474kts
05-May-18 13:22 35.140542 -120.458398 315 27144ft 489kts
05-May-18 13:23 35.244288 -120.570648 315 25252ft 506kts
05-May-18 13:24 35.339666 -120.670298 315 24127ft 495kts
05-May-18 13:25 35.440801 -120.776691 314 23943ft 467kts
05-May-18 13:26 35.526519 -120.870579 312 23812ft 446kts
05-May-18 13:27 35.611688 -120.974923 309 24037ft 422kts
05-May-18 13:28 35.695218 -121.075125 311 24132ft 408kts
05-May-18 13:29 35.779039 -121.171316 313 23269ft 424kts
05-May-18 13:30 35.870228 -121.263004 316 21454ft 406kts
05-May-18 13:31 35.950821 -121.350963 312 18851ft 384kts
05-May-18 13:32 36.023412 -121.444270 309 15672ft 368kts
05-May-18 13:33 36.092854 -121.535055 309 12492ft 351kts
05-May-18 13:34 36.170351 -121.587057 342 11020ft 305kts
05-May-18 13:35 36.247237 -121.616269 343 9266ft 279kts
05-May-18 13:36 36.318953 -121.647841 338 7314ft 269kts
05-May-18 13:37 36.387978 -121.677646 341 6129ft 279kts
05-May-18 13:38 36.455095 -121.709926 336 5477ft 246kts
05-May-18 13:39 36.515252 -121.746884 331 3978ft 245kts
05-May-18 13:40 36.562520 -121.783767 312 1404ft 179kts
05-May-18 13:41 36.583707 -121.834319 291 275ft 149kts
05-May-18 13:42 36.589810 -121.852345 309 208ft 9kts
05-May-18 13:44 36.590430 -121.850945 76 209ft 10kts
05-May-18 13:45 36.591580 -121.848806 295 209ft 0kts

Navigation Log

Ident Type
Flight plan parsing failed, navigation log unavailable